Time;durP1;ratioP1;P1;durP2;ratioP2;P2;SDS_P1;SDS_P2;PMS_P1;PMS_P2;Temp;Humidity;BMP_temperature;BMP_pressure;BME280_temperature;BME280_humidity;BME280_pressure;Samples;Min_cycle;Max_cycle;Signal;HPM_P1;HPM_P2
2022/01/23 00:00:38;;;;;;;14.95;8.60;;;;;;;;;;5059521;28;20077;-70
2022/01/23 00:03:09;;;;;;;12.23;6.78;;;;;;;;;;5061010;28;20036;-69
2022/01/23 00:05:37;;;;;;;22.48;9.98;;;;;;;;;;5060644;28;20079;-69
2022/01/23 00:08:03;;;;;;;24.48;10.77;;;;;;;;;;5060732;28;20020;-69
2022/01/23 00:10:29;;;;;;;15.77;8.52;;;;;;;;;;5059727;28;20466;-71
2022/01/23 00:13:07;;;;;;;23.45;11.65;;;;;;;;;;5060279;28;20040;-69
2022/01/23 00:18:17;;;;;;;17.15;8.40;;;;;;;;;;5060021;28;20047;-70
2022/01/23 00:20:43;;;;;;;25.75;10.57;;;;;;;;;;5060689;28;20041;-70
2022/01/23 00:23:28;;;;;;;21.88;10.48;;;;;;;;;;5059203;28;20134;-70
2022/01/23 00:31:26;;;;;;;11.95;6.13;;;;;;;;;;5062436;28;20127;-70
2022/01/23 00:33:54;;;;;;;14.93;7.85;;;;;;;;;;5054640;28;20070;-69
2022/01/23 00:36:24;;;;;;;13.20;7.18;;;;;;;;;;5064709;28;20032;-69
2022/01/23 00:38:49;;;;;;;23.33;9.35;;;;;;;;;;5062430;28;20397;-69
2022/01/23 00:41:15;;;;;;;13.98;8.18;;;;;;;;;;5080076;28;20036;-70
2022/01/23 00:43:43;;;;;;;16.05;8.48;;;;;;;;;;5065406;28;20039;-70
2022/01/23 00:46:29;;;;;;;8.45;5.22;;;;;;;;;;5064254;28;20503;-69
2022/01/23 00:51:21;;;;;;;28.40;12.77;;;;;;;;;;5063134;28;20116;-69
2022/01/23 00:53:47;;;;;;;25.92;12.65;;;;;;;;;;5062452;28;20417;-69
2022/01/23 00:56:13;;;;;;;20.45;11.43;;;;;;;;;;5061466;28;20155;-69
2022/01/23 00:58:39;;;;;;;23.08;10.32;;;;;;;;;;5079486;28;20451;-69
2022/01/23 01:01:04;;;;;;;13.32;6.38;;;;;;;;;;5079375;28;20040;-69
2022/01/23 01:03:30;;;;;;;20.70;10.07;;;;;;;;;;5062990;28;20016;-69
2022/01/23 01:05:56;;;;;;;23.80;12.18;;;;;;;;;;5078439;28;20032;-69
2022/01/23 01:08:21;;;;;;;11.38;7.45;;;;;;;;;;5063696;28;20033;-69
2022/01/23 01:11:10;;;;;;;30.83;12.55;;;;;;;;;;5062250;28;20036;-69
2022/01/23 01:36:01;;;;;;;29.58;11.82;;;;;;;;;;5061237;28;20032;-69
2022/01/23 01:38:15;;;;;;;13.40;6.88;;;;;;;;;;5058163;28;20117;-69
2022/01/23 01:40:41;;;;;;;12.23;7.32;;;;;;;;;;5060802;28;20049;-68
2022/01/23 01:43:07;;;;;;;24.45;13.25;;;;;;;;;;5044376;28;20619;-69
2022/01/23 01:45:38;;;;;;;11.68;7.32;;;;;;;;;;5060562;28;20040;-69
2022/01/23 01:48:26;;;;;;;15.15;7.38;;;;;;;;;;5062079;28;20087;-69
2022/01/23 01:51:03;;;;;;;13.00;7.70;;;;;;;;;;5044486;28;20025;-68
2022/01/23 01:53:29;;;;;;;14.40;6.88;;;;;;;;;;5060815;28;20037;-70
2022/01/23 01:55:56;;;;;;;17.45;10.10;;;;;;;;;;5062320;28;20048;-72
2022/01/23 02:09:41;;;;;;;11.90;7.10;;;;;;;;;;5057327;28;20036;-71
2022/01/23 02:50:59;;;;;;;26.70;11.20;;;;;;;;;;5061064;28;20090;-69
2022/01/23 02:55:59;;;;;;;;;;;;;;;;;;5050255;28;20036;-69
2022/01/23 02:58:32;;;;;;;16.75;8.75;;;;;;;;;;5056059;28;19916;-69
2022/01/23 03:01:10;;;;;;;29.02;11.20;;;;;;;;;;5059878;28;20036;-69
2022/01/23 03:04:11;;;;;;;17.65;7.32;;;;;;;;;;5039088;28;20041;-69
2022/01/23 03:07:56;;;;;;;17.50;8.13;;;;;;;;;;5046794;28;20048;-69
2022/01/23 03:10:03;;;;;;;28.08;13.43;;;;;;;;;;5048298;28;20036;-69
2022/01/23 03:16:14;;;;;;;24.52;11.13;;;;;;;;;;5060534;28;20033;-69
2022/01/23 03:31:30;;;;;;;30.40;12.40;;;;;;;;;;5059796;28;20540;-69
2022/01/23 03:33:56;;;;;;;20.80;10.63;;;;;;;;;;5059769;28;20033;-69
2022/01/23 03:36:22;;;;;;;21.27;10.82;;;;;;;;;;5059422;28;20420;-70
2022/01/23 03:38:47;;;;;;;19.42;9.23;;;;;;;;;;5059629;28;20535;-70
2022/01/23 03:41:13;;;;;;;16.42;9.45;;;;;;;;;;5059030;28;20024;-70
2022/01/23 03:43:40;;;;;;;16.55;8.95;;;;;;;;;;5061301;28;20097;-70
2022/01/23 03:46:35;;;;;;;26.25;10.27;;;;;;;;;;5059797;28;20123;-69
2022/01/23 03:51:51;;;;;;;19.50;10.25;;;;;;;;;;5058251;28;20123;-70
2022/01/23 03:54:17;;;;;;;18.05;9.95;;;;;;;;;;5059733;28;20103;-70
2022/01/23 03:56:44;;;;;;;22.20;10.65;;;;;;;;;;5059180;28;20493;-70
2022/01/23 03:59:10;;;;;;;14.43;7.65;;;;;;;;;;5065369;28;20036;-70
2022/01/23 04:01:35;;;;;;;20.98;9.25;;;;;;;;;;5058650;28;20032;-69
2022/01/23 04:04:06;;;;;;;25.20;10.73;;;;;;;;;;5058807;28;20032;-69
2022/01/23 04:06:32;;;;;;;24.73;10.23;;;;;;;;;;5075063;28;20086;-69
2022/01/23 04:08:57;;;;;;;21.42;11.23;;;;;;;;;;5075197;28;20059;-69
2022/01/23 04:11:23;;;;;;;19.73;9.80;;;;;;;;;;5074664;28;20427;-70
2022/01/23 04:14:04;;;;;;;15.38;8.02;;;;;;;;;;5057386;28;20064;-70
2022/01/23 04:35:40;;;;;;;18.27;8.95;;;;;;;;;;5058407;28;20041;-70
2022/01/23 04:45:53;;;;;;;16.25;5.15;;;;;;;;;;5058100;28;20093;-69
2022/01/23 05:02:10;;;;;;;25.88;12.43;;;;;;;;;;5058280;28;20039;-70
2022/01/23 05:04:54;;;;;;;24.08;12.57;;;;;;;;;;5060323;28;20043;-70
2022/01/23 05:07:25;;;;;;;22.30;10.75;;;;;;;;;;5059326;28;20033;-69
2022/01/23 05:10:14;;;;;;;22.90;9.80;;;;;;;;;;5058392;28;20048;-70
2022/01/23 05:12:45;;;;;;;17.23;10.20;;;;;;;;;;5058954;28;20068;-69
2022/01/23 05:15:11;;;;;;;19.13;9.52;;;;;;;;;;5057682;28;20172;-70
2022/01/23 05:17:37;;;;;;;23.42;10.85;;;;;;;;;;5061646;28;20194;-70
2022/01/23 05:20:05;;;;;;;25.45;8.25;;;;;;;;;;5062528;28;20040;-70
2022/01/23 05:25:02;;;;;;;24.58;11.02;;;;;;;;;;5062527;28;20043;-70
2022/01/23 05:27:29;;;;;;;19.50;9.73;;;;;;;;;;5062571;28;20120;-70
2022/01/23 05:29:57;;;;;;;18.13;10.52;;;;;;;;;;5060358;28;20058;-70
2022/01/23 05:32:25;;;;;;;22.40;9.85;;;;;;;;;;5062215;28;20036;-70
2022/01/23 05:34:51;;;;;;;17.17;8.38;;;;;;;;;;5062565;28;20028;-69
2022/01/23 05:37:24;;;;;;;13.82;8.20;;;;;;;;;;5062815;28;20032;-70
2022/01/23 05:39:50;;;;;;;27.08;10.40;;;;;;;;;;5062185;28;20489;-69
2022/01/23 05:42:17;;;;;;;20.42;10.65;;;;;;;;;;5061640;28;20016;-70
2022/01/23 05:44:42;;;;;;;24.67;11.00;;;;;;;;;;5062410;28;20401;-70
2022/01/23 05:47:10;;;;;;;20.75;9.85;;;;;;;;;;5078386;28;20032;-69
2022/01/23 05:49:48;;;;;;;23.25;11.15;;;;;;;;;;5078633;28;20059;-70
2022/01/23 05:52:37;;;;;;;23.00;9.85;;;;;;;;;;5062217;28;20040;-70
2022/01/23 05:55:29;;;;;;;17.13;8.15;;;;;;;;;;5054051;28;20036;-70
2022/01/23 05:58:07;;;;;;;16.20;8.75;;;;;;;;;;5061698;28;20036;-70
2022/01/23 06:00:46;;;;;;;20.30;9.07;;;;;;;;;;5061620;28;20432;-70
2022/01/23 06:03:16;;;;;;;16.88;8.70;;;;;;;;;;5060601;28;20089;-70
2022/01/23 06:06:10;;;;;;;19.08;10.05;;;;;;;;;;5055108;28;20041;-70
2022/01/23 06:08:36;;;;;;;17.13;9.38;;;;;;;;;;5077868;28;20045;-70
2022/01/23 06:11:01;;;;;;;15.25;8.90;;;;;;;;;;5061840;28;20032;-70
2022/01/23 06:13:33;;;;;;;11.98;7.18;;;;;;;;;;5044668;28;20069;-70
2022/01/23 06:15:59;;;;;;;18.52;9.13;;;;;;;;;;5061487;28;20082;-70
2022/01/23 06:18:26;;;;;;;23.60;10.98;;;;;;;;;;5061027;28;20408;-70
2022/01/23 06:21:11;;;;;;;21.52;10.80;;;;;;;;;;5063099;28;20113;-71
2022/01/23 06:24:04;;;;;;;20.20;10.05;;;;;;;;;;5062948;28;20055;-70
2022/01/23 06:26:52;;;;;;;17.77;9.82;;;;;;;;;;5059902;28;20119;-70
2022/01/23 06:29:19;;;;;;;23.15;10.77;;;;;;;;;;5061134;28;20036;-70
2022/01/23 06:31:48;;;;;;;20.17;10.48;;;;;;;;;;5060931;28;20047;-70
2022/01/23 06:34:15;;;;;;;18.90;9.43;;;;;;;;;;5060957;28;20033;-70
2022/01/23 06:36:42;;;;;;;14.38;7.53;;;;;;;;;;5060090;28;20040;-70
2022/01/23 06:39:10;;;;;;;14.98;8.40;;;;;;;;;;5061087;28;20032;-70
2022/01/23 06:41:38;;;;;;;17.42;9.68;;;;;;;;;;5060793;28;20912;-70
2022/01/23 06:44:37;;;;;;;13.00;7.18;;;;;;;;;;5069500;28;20059;-71
2022/01/23 06:47:06;;;;;;;20.30;10.27;;;;;;;;;;5045460;28;20378;-71
2022/01/23 06:49:31;;;;;;;18.83;9.35;;;;;;;;;;5063193;28;20035;-71
2022/01/23 06:51:57;;;;;;;21.25;9.80;;;;;;;;;;5060400;28;20381;-73
2022/01/23 06:54:26;;;;;;;18.50;9.35;;;;;;;;;;5043239;28;20032;-74
2022/01/23 06:56:52;;;;;;;19.13;9.38;;;;;;;;;;5059284;28;20044;-73
2022/01/23 06:59:17;;;;;;;17.80;9.40;;;;;;;;;;5059309;28;20451;-72
2022/01/23 07:01:49;;;;;;;21.00;11.30;;;;;;;;;;5047086;28;20090;-71
2022/01/23 07:04:25;;;;;;;23.67;10.95;;;;;;;;;;5071050;28;20036;-71
2022/01/23 07:07:17;;;;;;;17.30;8.52;;;;;;;;;;5059886;28;20041;-70
2022/01/23 07:09:46;;;;;;;18.27;9.55;;;;;;;;;;5058782;28;20412;-71
2022/01/23 07:12:39;;;;;;;18.98;9.27;;;;;;;;;;5047512;28;20040;-71
2022/01/23 07:15:23;;;;;;;20.80;9.90;;;;;;;;;;5060746;28;20094;-71
2022/01/23 07:18:21;;;;;;;13.20;8.10;;;;;;;;;;5058456;28;20049;-71
2022/01/23 07:21:08;;;;;;;19.92;10.18;;;;;;;;;;5055545;28;20044;-71
2022/01/23 07:23:36;;;;;;;17.63;9.93;;;;;;;;;;5049844;28;20108;-71
2022/01/23 07:26:02;;;;;;;17.77;9.45;;;;;;;;;;5058854;28;21135;-71
2022/01/23 07:28:38;;;;;;;15.27;7.68;;;;;;;;;;5063359;28;20047;-71
2022/01/23 07:31:06;;;;;;;22.20;10.52;;;;;;;;;;5056223;28;20032;-72
2022/01/23 07:33:36;;;;;;;19.73;10.35;;;;;;;;;;5075225;28;20110;-72
2022/01/23 07:36:04;;;;;;;22.40;9.55;;;;;;;;;;5055733;28;20046;-71
2022/01/23 07:38:30;;;;;;;22.02;10.60;;;;;;;;;;5048669;28;20062;-72
2022/01/23 07:41:19;;;;;;;22.65;11.55;;;;;;;;;;5055535;28;20036;-71
2022/01/23 07:43:52;;;;;;;21.75;11.02;;;;;;;;;;5058310;28;20959;-71
2022/01/23 07:46:44;;;;;;;20.35;10.55;;;;;;;;;;5058244;28;20939;-70
2022/01/23 07:49:28;;;;;;;19.20;11.25;;;;;;;;;;5075244;28;20067;-71
2022/01/23 07:52:01;;;;;;;18.90;10.02;;;;;;;;;;5060032;28;20493;-71
2022/01/23 07:54:40;;;;;;;25.88;11.38;;;;;;;;;;5042929;28;20032;-72
2022/01/23 07:57:26;;;;;;;22.23;12.27;;;;;;;;;;5056826;28;20075;-71
2022/01/23 07:59:57;;;;;;;17.88;10.70;;;;;;;;;;5028401;28;20089;-72
2022/01/23 08:02:41;;;;;;;23.15;11.20;;;;;;;;;;5058759;28;20055;-72
2022/01/23 08:05:27;;;;;;;23.65;11.70;;;;;;;;;;5058007;28;20489;-71
2022/01/23 08:08:13;;;;;;;22.98;11.40;;;;;;;;;;5057723;28;20149;-71
2022/01/23 08:10:51;;;;;;;18.50;10.05;;;;;;;;;;5057544;28;20039;-71
2022/01/23 08:13:18;;;;;;;21.00;11.05;;;;;;;;;;5063157;28;20091;-72
2022/01/23 08:15:46;;;;;;;22.58;11.65;;;;;;;;;;5055254;28;20056;-72
2022/01/23 08:18:11;;;;;;;22.90;11.90;;;;;;;;;;5059151;28;20043;-72
2022/01/23 08:20:37;;;;;;;21.25;11.05;;;;;;;;;;5060638;28;20033;-73
2022/01/23 08:23:04;;;;;;;25.08;11.95;;;;;;;;;;5060196;28;20028;-72
2022/01/23 08:25:31;;;;;;;22.20;10.73;;;;;;;;;;5058872;28;20153;-74
2022/01/23 08:27:58;;;;;;;20.75;11.55;;;;;;;;;;5058539;28;20032;-73
2022/01/23 08:30:24;;;;;;;19.90;10.82;;;;;;;;;;5059575;28;20042;-74
2022/01/23 08:32:50;;;;;;;16.27;9.88;;;;;;;;;;5059628;28;20028;-74
2022/01/23 08:35:15;;;;;;;19.13;11.13;;;;;;;;;;5039289;28;20128;-74
2022/01/23 08:37:41;;;;;;;20.30;10.85;;;;;;;;;;5038362;28;20044;-74
2022/01/23 08:40:17;;;;;;;20.85;10.95;;;;;;;;;;5057239;28;20064;-75
2022/01/23 08:42:43;;;;;;;22.90;11.35;;;;;;;;;;5046078;28;20032;-76
2022/01/23 08:45:09;;;;;;;20.73;11.55;;;;;;;;;;5041832;28;20039;-73
2022/01/23 08:47:34;;;;;;;16.92;9.95;;;;;;;;;;5041228;28;20043;-73
2022/01/23 08:50:00;;;;;;;18.45;11.10;;;;;;;;;;5060581;28;20112;-73
2022/01/23 08:52:25;;;;;;;24.65;11.63;;;;;;;;;;5064851;28;20037;-73
2022/01/23 08:54:56;;;;;;;27.25;13.60;;;;;;;;;;5065006;28;20043;-73
2022/01/23 08:57:23;;;;;;;17.10;9.95;;;;;;;;;;5064808;28;20036;-75
2022/01/23 08:59:49;;;;;;;18.70;10.73;;;;;;;;;;5033302;28;20024;-75
2022/01/23 09:02:16;;;;;;;23.92;10.82;;;;;;;;;;5047143;28;20055;-73
2022/01/23 09:04:43;;;;;;;18.67;9.85;;;;;;;;;;5054341;28;20037;-74
2022/01/23 09:07:08;;;;;;;19.80;10.68;;;;;;;;;;5062682;28;21050;-74
2022/01/23 09:09:37;;;;;;;16.65;9.75;;;;;;;;;;5062197;28;20044;-74
2022/01/23 09:12:08;;;;;;;25.67;12.25;;;;;;;;;;5063482;28;20161;-74
2022/01/23 09:14:34;;;;;;;23.65;11.93;;;;;;;;;;5061856;28;20032;-74
2022/01/23 09:17:00;;;;;;;17.73;10.93;;;;;;;;;;5063929;28;20036;-75
2022/01/23 09:19:26;;;;;;;21.70;11.57;;;;;;;;;;5064214;28;20040;-73
2022/01/23 09:21:53;;;;;;;20.48;10.80;;;;;;;;;;5063323;28;20055;-73
2022/01/23 09:24:21;;;;;;;17.70;11.02;;;;;;;;;;5064802;28;20033;-73
2022/01/23 09:26:52;;;;;;;25.63;11.10;;;;;;;;;;5064475;28;20794;-73
2022/01/23 09:29:29;;;;;;;21.00;11.70;;;;;;;;;;5062693;28;20032;-73
2022/01/23 09:31:55;;;;;;;18.60;11.55;;;;;;;;;;5061772;28;20546;-73
2022/01/23 09:34:25;;;;;;;14.35;8.02;;;;;;;;;;5063567;28;20044;-73
2022/01/23 09:36:52;;;;;;;20.98;12.43;;;;;;;;;;5061922;28;21037;-72
2022/01/23 09:39:20;;;;;;;22.75;11.45;;;;;;;;;;5062297;28;20474;-73
2022/01/23 09:41:49;;;;;;;17.42;10.93;;;;;;;;;;5063716;28;20812;-72
2022/01/23 09:44:17;;;;;;;18.77;11.57;;;;;;;;;;5060927;28;20036;-72
2022/01/23 09:46:44;;;;;;;19.63;11.70;;;;;;;;;;5063146;28;20040;-73
2022/01/23 09:49:14;;;;;;;21.63;11.68;;;;;;;;;;5056985;28;20036;-75
2022/01/23 09:51:44;;;;;;;15.68;10.10;;;;;;;;;;5062105;28;20048;-75
2022/01/23 09:54:11;;;;;;;20.13;11.57;;;;;;;;;;5060671;28;20033;-74
2022/01/23 09:56:37;;;;;;;20.83;11.20;;;;;;;;;;5059967;28;20032;-74
2022/01/23 09:59:03;;;;;;;15.85;10.60;;;;;;;;;;5060837;28;20082;-75
2022/01/23 10:01:31;;;;;;;16.60;9.57;;;;;;;;;;5059910;28;20070;-74
2022/01/23 10:03:57;;;;;;;19.20;10.43;;;;;;;;;;5058383;28;20046;-78
2022/01/23 10:06:22;;;;;;;19.73;11.52;;;;;;;;;;5060921;28;20143;-76
2022/01/23 10:08:49;;;;;;;14.27;8.80;;;;;;;;;;5062455;28;20035;-77
2022/01/23 10:11:15;;;;;;;17.35;10.35;;;;;;;;;;5062507;28;20090;-76
2022/01/23 10:13:42;;;;;;;19.13;10.65;;;;;;;;;;5061887;28;20040;-78
2022/01/23 10:16:08;;;;;;;18.38;10.23;;;;;;;;;;5059109;28;20051;-78
2022/01/23 10:18:33;;;;;;;16.40;9.40;;;;;;;;;;5060041;28;20040;-78
2022/01/23 10:21:00;;;;;;;17.17;9.65;;;;;;;;;;5038766;28;20040;-78
2022/01/23 10:23:26;;;;;;;13.95;9.23;;;;;;;;;;5061643;28;20046;-78
2022/01/23 10:25:53;;;;;;;14.88;8.90;;;;;;;;;;5045717;28;20121;-78
2022/01/23 10:28:21;;;;;;;13.93;8.35;;;;;;;;;;5060743;28;20859;-77
2022/01/23 10:30:56;;;;;;;15.85;10.27;;;;;;;;;;5060636;28;20040;-77
2022/01/23 10:33:27;;;;;;;15.05;9.68;;;;;;;;;;5068105;28;20124;-78
2022/01/23 10:36:07;;;;;;;15.20;10.05;;;;;;;;;;5060344;28;20032;-77
2022/01/23 10:38:35;;;;;;;14.07;9.00;;;;;;;;;;5037886;28;20450;-76
2022/01/23 10:41:30;;;;;;;15.10;9.52;;;;;;;;;;5059964;28;20060;-77
2022/01/23 10:49:52;;;;;;;14.35;9.50;;;;;;;;;;5060221;28;20063;-76
2022/01/23 10:52:48;;;;;;;17.73;9.77;;;;;;;;;;5059849;28;20048;-76
2022/01/23 10:55:19;;;;;;;17.65;10.07;;;;;;;;;;5048018;28;20189;-76
2022/01/23 10:57:48;;;;;;;15.27;9.47;;;;;;;;;;5060874;28;20044;-76
2022/01/23 11:00:34;;;;;;;17.00;10.13;;;;;;;;;;5058799;28;20036;-76
2022/01/23 11:03:13;;;;;;;15.60;10.15;;;;;;;;;;5059762;28;20401;-76
2022/01/23 11:05:39;;;;;;;15.75;9.80;;;;;;;;;;5060052;28;20884;-75
2022/01/23 11:08:28;;;;;;;13.70;8.98;;;;;;;;;;5041298;28;20500;-76
2022/01/23 11:10:57;;;;;;;14.10;7.90;;;;;;;;;;5059486;28;20032;-76
2022/01/23 11:19:21;;;;;;;12.95;9.07;;;;;;;;;;5059337;28;20572;-75
2022/01/23 11:21:47;;;;;;;12.18;8.93;;;;;;;;;;5075265;28;20040;-75
2022/01/23 11:24:13;;;;;;;15.32;8.57;;;;;;;;;;5060053;28;20481;-76
2022/01/23 11:26:39;;;;;;;14.20;8.98;;;;;;;;;;5060679;28;20025;-75
2022/01/23 11:29:11;;;;;;;14.07;8.50;;;;;;;;;;5042433;28;20036;-76
2022/01/23 11:31:38;;;;;;;14.35;8.95;;;;;;;;;;5042151;28;20036;-76
2022/01/23 11:34:06;;;;;;;14.35;8.52;;;;;;;;;;5057721;28;20097;-75
2022/01/23 11:36:32;;;;;;;13.95;9.13;;;;;;;;;;5060220;28;20032;-75
2022/01/23 11:39:12;;;;;;;12.38;8.90;;;;;;;;;;5061844;28;20377;-75
2022/01/23 11:53:47;;;;;;;11.95;8.30;;;;;;;;;;5061669;28;20045;-76
2022/01/23 11:56:25;;;;;;;11.73;7.80;;;;;;;;;;5060177;28;20060;-76
2022/01/23 11:59:09;;;;;;;11.70;8.18;;;;;;;;;;5060656;28;20036;-76
2022/01/23 12:01:39;;;;;;;14.05;8.77;;;;;;;;;;5067757;28;20078;-76
2022/01/23 12:04:07;;;;;;;12.38;8.10;;;;;;;;;;5059484;28;20032;-76
2022/01/23 12:06:35;;;;;;;24.15;8.25;;;;;;;;;;5057305;28;20040;-76
2022/01/23 12:09:09;;;;;;;12.38;8.05;;;;;;;;;;5055330;28;20036;-75
2022/01/23 12:11:47;;;;;;;15.05;9.05;;;;;;;;;;5059718;28;20051;-74
2022/01/23 12:16:58;;;;;;;11.25;7.57;;;;;;;;;;5057208;28;20044;-74
2022/01/23 12:19:47;;;;;;;14.68;7.57;;;;;;;;;;5057407;28;20127;-73
2022/01/23 12:22:37;;;;;;;12.52;7.75;;;;;;;;;;5055547;28;20052;-73
2022/01/23 12:25:17;;;;;;;15.35;7.60;;;;;;;;;;5059501;28;20032;-74
2022/01/23 12:27:44;;;;;;;10.10;6.35;;;;;;;;;;5044022;28;20182;-73
2022/01/23 12:30:31;;;;;;;10.38;7.10;;;;;;;;;;5060898;28;20123;-75
2022/01/23 12:33:16;;;;;;;15.35;7.88;;;;;;;;;;5067545;28;20044;-75
2022/01/23 12:35:53;;;;;;;11.90;8.43;;;;;;;;;;5059570;28;20044;-76
2022/01/23 12:38:25;;;;;;;9.45;7.03;;;;;;;;;;5064019;28;20633;-73
2022/01/23 12:40:51;;;;;;;11.98;8.00;;;;;;;;;;5063878;28;20382;-74
2022/01/23 12:43:26;;;;;;;16.13;9.43;;;;;;;;;;5043082;28;20032;-75
2022/01/23 12:45:55;;;;;;;13.00;8.10;;;;;;;;;;5039420;28;20039;-74
2022/01/23 12:48:27;;;;;;;12.18;7.82;;;;;;;;;;5064686;28;20382;-75
2022/01/23 12:51:00;;;;;;;11.70;8.13;;;;;;;;;;5053981;28;21203;-74
2022/01/23 12:53:58;;;;;;;9.55;6.85;;;;;;;;;;5060998;28;20599;-75
2022/01/23 12:56:30;;;;;;;9.32;6.70;;;;;;;;;;5061521;28;20577;-72
2022/01/23 12:59:05;;;;;;;;;;;;;;;;;;5062887;28;20115;-75
2022/01/23 13:01:30;;;;;;;9.23;6.28;;;;;;;;;;5061141;28;20388;-75
2022/01/23 13:04:03;;;;;;;10.50;7.28;;;;;;;;;;5043933;28;20036;-74
2022/01/23 13:06:46;;;;;;;9.20;6.53;;;;;;;;;;5058341;28;20079;-75
2022/01/23 13:31:53;;;;;;;8.20;5.40;;;;;;;;;;5058150;28;20261;-77
2022/01/23 13:34:30;;;;;;;8.07;5.13;;;;;;;;;;5067417;28;20048;-77
2022/01/23 13:37:01;;;;;;;6.28;5.28;;;;;;;;;;5070274;28;20037;-77
2022/01/23 13:39:46;;;;;;;7.68;5.63;;;;;;;;;;5061299;28;20064;-80
2022/01/23 13:42:29;;;;;;;9.00;5.25;;;;;;;;;;5065985;28;20032;-76
2022/01/23 13:53:38;;;;;;;11.02;7.35;;;;;;;;;;5061016;28;20032;-76
2022/01/23 13:59:24;;;;;;;15.05;8.82;;;;;;;;;;5061556;28;20442;-77
2022/01/23 14:04:23;;;;;;;16.60;11.27;;;;;;;;;;5062516;28;20024;-79
2022/01/23 14:06:49;;;;;;;15.02;9.10;;;;;;;;;;5062834;28;20536;-79
2022/01/23 14:09:16;;;;;;;12.73;8.70;;;;;;;;;;5060245;28;20070;-77
2022/01/23 14:11:43;;;;;;;12.23;8.35;;;;;;;;;;5061548;28;20044;-77
2022/01/23 14:14:20;;;;;;;15.80;9.38;;;;;;;;;;5062923;28;20032;-76
2022/01/23 14:16:47;;;;;;;16.70;10.85;;;;;;;;;;5062835;28;20412;-77
2022/01/23 14:19:28;;;;;;;15.88;10.23;;;;;;;;;;5061520;28;20050;-77
2022/01/23 14:21:59;;;;;;;13.48;9.02;;;;;;;;;;5060249;28;20040;-74
2022/01/23 14:24:33;;;;;;;14.23;8.70;;;;;;;;;;5061427;28;20033;-74
2022/01/23 14:27:11;;;;;;;13.45;8.68;;;;;;;;;;5061657;28;20325;-76
2022/01/23 14:29:52;;;;;;;15.30;8.98;;;;;;;;;;5059271;28;20142;-74
2022/01/23 14:32:44;;;;;;;15.18;9.38;;;;;;;;;;5044415;28;20055;-74
2022/01/23 14:35:13;;;;;;;11.95;7.75;;;;;;;;;;5059363;28;20087;-74
2022/01/23 14:37:41;;;;;;;18.15;12.55;;;;;;;;;;5042297;28;20029;-74
2022/01/23 14:40:12;;;;;;;17.50;10.35;;;;;;;;;;5059950;28;20037;-73
2022/01/23 14:42:37;;;;;;;127.53;50.27;;;;;;;;;;5043059;28;20090;-74
2022/01/23 14:45:07;;;;;;;61.72;25.15;;;;;;;;;;5060760;28;20282;-73
2022/01/23 14:47:39;;;;;;;19.95;12.20;;;;;;;;;;5060127;28;20509;-73
2022/01/23 14:50:11;;;;;;;18.80;10.80;;;;;;;;;;5060767;28;20679;-73
2022/01/23 14:52:38;;;;;;;;;;;;;;;;;;5061712;28;20039;-73
2022/01/23 14:55:04;;;;;;;16.30;10.02;;;;;;;;;;5059970;28;20923;-73
2022/01/23 14:57:32;;;;;;;14.38;9.05;;;;;;;;;;5061348;28;20051;-73
2022/01/23 14:59:59;;;;;;;14.98;9.77;;;;;;;;;;5060588;28;20089;-73
2022/01/23 15:02:25;;;;;;;16.63;10.80;;;;;;;;;;5060163;28;20153;-73
2022/01/23 15:04:50;;;;;;;16.17;10.88;;;;;;;;;;5060216;28;20074;-73
2022/01/23 15:07:18;;;;;;;15.93;10.20;;;;;;;;;;5060911;28;20145;-73
2022/01/23 15:09:46;;;;;;;15.02;10.48;;;;;;;;;;5059280;28;20091;-73
2022/01/23 15:12:13;;;;;;;14.70;9.57;;;;;;;;;;5059360;28;20047;-73
2022/01/23 15:14:39;;;;;;;16.23;10.13;;;;;;;;;;5061450;28;20508;-73
2022/01/23 15:17:05;;;;;;;16.13;10.30;;;;;;;;;;5058287;28;20037;-73
2022/01/23 15:19:32;;;;;;;18.27;12.07;;;;;;;;;;5058529;28;20458;-73
2022/01/23 15:21:58;;;;;;;34.97;17.23;;;;;;;;;;5058942;28;20047;-73
2022/01/23 15:24:23;;;;;;;39.45;19.00;;;;;;;;;;5060634;28;20242;-73
2022/01/23 15:26:49;;;;;;;28.42;15.75;;;;;;;;;;5059923;28;20025;-73
2022/01/23 15:29:15;;;;;;;21.90;12.55;;;;;;;;;;5059958;28;20059;-72
2022/01/23 15:31:40;;;;;;;27.75;16.50;;;;;;;;;;5076271;28;20036;-73
2022/01/23 15:34:06;;;;;;;18.98;10.73;;;;;;;;;;5075921;28;20068;-73
2022/01/23 15:36:32;;;;;;;25.20;13.50;;;;;;;;;;5060760;28;20485;-73
2022/01/23 15:38:58;;;;;;;20.58;12.32;;;;;;;;;;5058661;28;20028;-73
2022/01/23 15:41:23;;;;;;;26.15;15.63;;;;;;;;;;5057776;28;20876;-74
2022/01/23 15:43:49;;;;;;;52.78;25.55;;;;;;;;;;5059277;28;20028;-74
2022/01/23 15:46:14;;;;;;;30.92;18.25;;;;;;;;;;5059551;28;20582;-73
2022/01/23 15:48:40;;;;;;;24.27;14.68;;;;;;;;;;5058104;28;20040;-73
2022/01/23 15:51:06;;;;;;;22.45;13.15;;;;;;;;;;5058518;28;20044;-73
2022/01/23 15:53:32;;;;;;;20.48;11.98;;;;;;;;;;5058243;28;20032;-73
2022/01/23 15:55:58;;;;;;;20.50;11.85;;;;;;;;;;5058076;28;20036;-73
2022/01/23 15:58:24;;;;;;;19.10;10.68;;;;;;;;;;5060869;28;20051;-72
2022/01/23 16:00:49;;;;;;;16.65;10.57;;;;;;;;;;5073199;28;20032;-74
2022/01/23 16:03:15;;;;;;;36.75;17.15;;;;;;;;;;5058899;28;20028;-74
2022/01/23 16:05:41;;;;;;;40.95;20.17;;;;;;;;;;5060199;28;20042;-73
2022/01/23 16:08:07;;;;;;;37.63;17.92;;;;;;;;;;5057777;28;20091;-73
2022/01/23 16:10:32;;;;;;;36.78;18.50;;;;;;;;;;5059225;28;20028;-73
2022/01/23 16:12:58;;;;;;;48.70;21.77;;;;;;;;;;5058918;28;20032;-73
2022/01/23 16:15:23;;;;;;;53.03;22.33;;;;;;;;;;5057764;28;20044;-73
2022/01/23 16:17:50;;;;;;;50.50;21.67;;;;;;;;;;5057489;28;20040;-73
2022/01/23 16:20:17;;;;;;;44.15;21.02;;;;;;;;;;5058324;28;20032;-72
2022/01/23 16:22:45;;;;;;;38.35;19.45;;;;;;;;;;5054287;28;20059;-74
2022/01/23 16:25:11;;;;;;;34.45;17.27;;;;;;;;;;5056865;28;20032;-73
2022/01/23 16:27:38;;;;;;;29.17;13.38;;;;;;;;;;5058298;28;20040;-73
2022/01/23 16:30:05;;;;;;;20.25;11.25;;;;;;;;;;5039783;28;20036;-73
2022/01/23 16:32:31;;;;;;;20.65;10.50;;;;;;;;;;5058042;28;20044;-73
2022/01/23 16:34:56;;;;;;;18.08;10.00;;;;;;;;;;5074999;28;20037;-73
2022/01/23 16:37:22;;;;;;;20.27;10.60;;;;;;;;;;5075134;28;20047;-73
2022/01/23 16:39:47;;;;;;;18.17;10.60;;;;;;;;;;5059573;28;20064;-73
2022/01/23 16:42:13;;;;;;;17.63;10.43;;;;;;;;;;5059371;28;20073;-74
2022/01/23 16:44:38;;;;;;;20.83;11.75;;;;;;;;;;5057262;28;20081;-73
2022/01/23 16:47:04;;;;;;;41.95;21.58;;;;;;;;;;5074546;28;20041;-73
2022/01/23 16:49:30;;;;;;;43.22;21.02;;;;;;;;;;5059000;28;20040;-73
2022/01/23 16:51:55;;;;;;;32.35;16.23;;;;;;;;;;5059483;28;20041;-73
2022/01/23 16:54:21;;;;;;;32.95;16.73;;;;;;;;;;5058459;28;20101;-73
2022/01/23 16:56:46;;;;;;;21.55;12.15;;;;;;;;;;5058004;28;20113;-73
2022/01/23 16:59:15;;;;;;;24.27;12.85;;;;;;;;;;5058193;28;20052;-73
2022/01/23 17:01:46;;;;;;;26.33;12.70;;;;;;;;;;5059685;28;20483;-73
2022/01/23 17:04:15;;;;;;;24.65;12.55;;;;;;;;;;5058913;28;20041;-73
2022/01/23 17:06:42;;;;;;;25.15;13.88;;;;;;;;;;5058432;28;20089;-74
2022/01/23 17:09:08;;;;;;;25.17;13.20;;;;;;;;;;5059005;28;20040;-73
2022/01/23 17:11:34;;;;;;;26.30;13.98;;;;;;;;;;5060719;28;20475;-72
2022/01/23 17:13:59;;;;;;;29.10;14.43;;;;;;;;;;5062723;28;20564;-73
2022/01/23 17:16:25;;;;;;;32.33;16.70;;;;;;;;;;5060950;28;20063;-72
2022/01/23 17:18:51;;;;;;;54.28;25.30;;;;;;;;;;5063086;28;20481;-73
2022/01/23 17:21:17;;;;;;;64.05;31.75;;;;;;;;;;5062347;28;20428;-72
2022/01/23 17:23:43;;;;;;;41.33;25.30;;;;;;;;;;5061491;28;20032;-72
2022/01/23 17:26:08;;;;;;;32.80;19.15;;;;;;;;;;5059971;28;20760;-73
2022/01/23 17:28:34;;;;;;;37.08;19.70;;;;;;;;;;5062012;28;20044;-74
2022/01/23 17:30:59;;;;;;;36.25;19.55;;;;;;;;;;5062528;28;20042;-73
2022/01/23 17:33:25;;;;;;;38.00;18.90;;;;;;;;;;5063648;28;20032;-73
2022/01/23 17:35:51;;;;;;;37.03;20.95;;;;;;;;;;5063841;28;20040;-72
2022/01/23 17:38:16;;;;;;;33.05;16.55;;;;;;;;;;5060949;28;20498;-75
2022/01/23 17:40:45;;;;;;;38.03;19.35;;;;;;;;;;5063043;28;20047;-73
2022/01/23 17:43:10;;;;;;;32.70;17.42;;;;;;;;;;5057874;28;20080;-72
2022/01/23 17:45:47;;;;;;;46.35;23.67;;;;;;;;;;5061659;28;20120;-75
2022/01/23 17:50:56;;;;;;;46.28;24.55;;;;;;;;;;5057159;28;20127;-75
2022/01/23 17:53:22;;;;;;;52.03;25.13;;;;;;;;;;5063436;28;20107;-73
2022/01/23 17:55:47;;;;;;;49.35;24.70;;;;;;;;;;5059263;28;20202;-73
2022/01/23 17:58:13;;;;;;;65.45;33.05;;;;;;;;;;5060887;28;20047;-72
2022/01/23 18:00:40;;;;;;;45.72;24.67;;;;;;;;;;5058485;28;20047;-74
2022/01/23 18:03:07;;;;;;;44.50;25.25;;;;;;;;;;5060327;28;21155;-75
2022/01/23 18:05:34;;;;;;;37.17;20.88;;;;;;;;;;5060868;28;20036;-74
2022/01/23 18:08:04;;;;;;;44.72;24.88;;;;;;;;;;5059668;28;20038;-74
2022/01/23 18:10:30;;;;;;;63.25;32.55;;;;;;;;;;5059159;28;20037;-73
2022/01/23 18:12:56;;;;;;;87.22;44.17;;;;;;;;;;5057924;28;20039;-73
2022/01/23 18:15:22;;;;;;;59.65;32.22;;;;;;;;;;5050101;28;20044;-73
2022/01/23 18:17:49;;;;;;;36.85;20.52;;;;;;;;;;5064398;28;20044;-73